Dno, Russia
Current Conditions -  °F | °C
As of 4:30 AM on Wednesday 22 Oct 2014 (Local Time) from ULOO Reporting Station
Overcast Overcast  
Wind Chill: 23°   Ceiling: 2400
Heat Index: 28°   Visibility: 4mi
Dew Point: 27°   Wind: 4mph
Humidity: 93%   Direction: 90°E
Pressure: 29.91"   Gusts: NA
Location:  57.83°N, 29.98°E
Report Text: ULOO 220130Z 09002MPS P6000 OVC024 M02/M03 Q1013 19190060 NOSIGRMK QFE755
Loading
Personal Weather Stations






























Interactive Weather Map
Tropical Storm Tracking
New forecast layout! Learn more

10-Day Weather Forecast

Advertisements
Track Severe Weather on mobile